sensor_id;sensor_type;location;lat;lon;timestamp;temperature;humidity
83142;DHT22;75194;51.180;5.972;2023-12-28T00:02:22;9.70;68.80
83142;DHT22;75194;51.180;5.972;2023-12-28T00:04:47;9.80;68.60
83142;DHT22;75194;51.180;5.972;2023-12-28T00:07:13;9.80;68.70
83142;DHT22;75194;51.180;5.972;2023-12-28T00:09:39;9.80;68.40
83142;DHT22;75194;51.180;5.972;2023-12-28T00:12:05;9.80;68.30
83142;DHT22;75194;51.180;5.972;2023-12-28T00:14:31;9.80;68.50
83142;DHT22;75194;51.180;5.972;2023-12-28T00:16:56;9.80;68.60
83142;DHT22;75194;51.180;5.972;2023-12-28T00:19:22;9.90;68.70
83142;DHT22;75194;51.180;5.972;2023-12-28T00:21:48;9.90;68.60
83142;DHT22;75194;51.180;5.972;2023-12-28T00:24:15;9.80;69.00
83142;DHT22;75194;51.180;5.972;2023-12-28T00:26:41;9.90;69.10
83142;DHT22;75194;51.180;5.972;2023-12-28T00:29:06;9.90;69.20
83142;DHT22;75194;51.180;5.972;2023-12-28T00:31:32;9.90;69.10
83142;DHT22;75194;51.180;5.972;2023-12-28T00:33:58;10.00;69.30
83142;DHT22;75194;51.180;5.972;2023-12-28T00:36:23;10.00;69.40
83142;DHT22;75194;51.180;5.972;2023-12-28T00:38:49;10.00;69.40
83142;DHT22;75194;51.180;5.972;2023-12-28T00:41:15;10.00;69.60
83142;DHT22;75194;51.180;5.972;2023-12-28T00:43:40;10.00;69.70
83142;DHT22;75194;51.180;5.972;2023-12-28T00:46:06;10.10;70.00
83142;DHT22;75194;51.180;5.972;2023-12-28T00:48:32;10.00;70.20
83142;DHT22;75194;51.180;5.972;2023-12-28T00:50:57;10.00;70.60
83142;DHT22;75194;51.180;5.972;2023-12-28T00:53:25;10.00;70.90
83142;DHT22;75194;51.180;5.972;2023-12-28T00:55:51;9.90;71.20
83142;DHT22;75194;51.180;5.972;2023-12-28T00:58:17;9.90;71.50
83142;DHT22;75194;51.180;5.972;2023-12-28T01:00:43;9.90;71.60
83142;DHT22;75194;51.180;5.972;2023-12-28T01:03:09;9.90;71.90
83142;DHT22;75194;51.180;5.972;2023-12-28T01:05:34;9.80;72.20
83142;DHT22;75194;51.180;5.972;2023-12-28T01:08:00;9.90;72.10
83142;DHT22;75194;51.180;5.972;2023-12-28T01:10:26;9.90;72.40
83142;DHT22;75194;51.180;5.972;2023-12-28T01:12:51;9.80;72.70
83142;DHT22;75194;51.180;5.972;2023-12-28T01:15:17;9.80;72.70
83142;DHT22;75194;51.180;5.972;2023-12-28T01:17:43;9.80;72.70
83142;DHT22;75194;51.180;5.972;2023-12-28T01:20:09;9.90;72.80
83142;DHT22;75194;51.180;5.972;2023-12-28T01:22:35;9.80;73.00
83142;DHT22;75194;51.180;5.972;2023-12-28T01:25:01;9.80;73.20
83142;DHT22;75194;51.180;5.972;2023-12-28T01:27:26;9.80;73.10
83142;DHT22;75194;51.180;5.972;2023-12-28T01:29:52;9.90;73.20
83142;DHT22;75194;51.180;5.972;2023-12-28T01:32:18;9.80;73.40
83142;DHT22;75194;51.180;5.972;2023-12-28T01:34:43;9.90;73.30
83142;DHT22;75194;51.180;5.972;2023-12-28T01:37:10;9.80;73.50
83142;DHT22;75194;51.180;5.972;2023-12-28T01:39:36;9.80;73.70
83142;DHT22;75194;51.180;5.972;2023-12-28T01:42:01;9.90;73.70
83142;DHT22;75194;51.180;5.972;2023-12-28T01:44:27;9.90;73.70
83142;DHT22;75194;51.180;5.972;2023-12-28T01:46:53;9.90;73.90
83142;DHT22;75194;51.180;5.972;2023-12-28T01:49:19;9.90;73.90
83142;DHT22;75194;51.180;5.972;2023-12-28T01:51:45;9.90;74.00
83142;DHT22;75194;51.180;5.972;2023-12-28T01:54:11;9.90;74.10
83142;DHT22;75194;51.180;5.972;2023-12-28T01:56:37;9.90;74.20
83142;DHT22;75194;51.180;5.972;2023-12-28T01:59:03;9.90;74.20
83142;DHT22;75194;51.180;5.972;2023-12-28T02:01:29;9.90;74.30
83142;DHT22;75194;51.180;5.972;2023-12-28T02:03:55;9.80;74.40
83142;DHT22;75194;51.180;5.972;2023-12-28T02:06:23;9.80;74.50
83142;DHT22;75194;51.180;5.972;2023-12-28T02:08:49;9.80;74.60
83142;DHT22;75194;51.180;5.972;2023-12-28T02:11:15;9.80;74.50
83142;DHT22;75194;51.180;5.972;2023-12-28T02:13:41;9.80;74.50
83142;DHT22;75194;51.180;5.972;2023-12-28T02:16:13;9.80;74.40
83142;DHT22;75194;51.180;5.972;2023-12-28T02:18:47;9.80;74.60
83142;DHT22;75194;51.180;5.972;2023-12-28T02:21:13;9.80;74.60
83142;DHT22;75194;51.180;5.972;2023-12-28T02:23:49;9.80;74.60
83142;DHT22;75194;51.180;5.972;2023-12-28T02:26:18;9.80;74.80
83142;DHT22;75194;51.180;5.972;2023-12-28T02:28:47;9.70;74.90
83142;DHT22;75194;51.180;5.972;2023-12-28T02:31:28;9.70;75.00
83142;DHT22;75194;51.180;5.972;2023-12-28T02:34:02;9.70;74.90
83142;DHT22;75194;51.180;5.972;2023-12-28T02:36:30;9.70;75.00
83142;DHT22;75194;51.180;5.972;2023-12-28T02:38:56;9.70;74.90
83142;DHT22;75194;51.180;5.972;2023-12-28T02:41:25;9.70;75.00
83142;DHT22;75194;51.180;5.972;2023-12-28T02:43:51;9.70;75.10
83142;DHT22;75194;51.180;5.972;2023-12-28T02:46:16;9.70;75.10
83142;DHT22;75194;51.180;5.972;2023-12-28T02:48:44;9.60;75.30
83142;DHT22;75194;51.180;5.972;2023-12-28T02:51:09;9.60;75.30
83142;DHT22;75194;51.180;5.972;2023-12-28T02:53:35;9.60;75.20
83142;DHT22;75194;51.180;5.972;2023-12-28T02:56:01;9.60;75.20
83142;DHT22;75194;51.180;5.972;2023-12-28T02:58:26;9.60;75.50
83142;DHT22;75194;51.180;5.972;2023-12-28T03:00:52;9.50;75.60
83142;DHT22;75194;51.180;5.972;2023-12-28T03:03:17;9.50;75.70
83142;DHT22;75194;51.180;5.972;2023-12-28T03:05:43;9.50;75.70
83142;DHT22;75194;51.180;5.972;2023-12-28T03:08:09;9.50;75.70
83142;DHT22;75194;51.180;5.972;2023-12-28T03:10:34;9.50;75.70
83142;DHT22;75194;51.180;5.972;2023-12-28T03:13:00;9.50;75.90
83142;DHT22;75194;51.180;5.972;2023-12-28T03:15:26;9.50;75.70
83142;DHT22;75194;51.180;5.972;2023-12-28T03:17:52;9.60;75.70
83142;DHT22;75194;51.180;5.972;2023-12-28T03:20:18;9.50;75.80
83142;DHT22;75194;51.180;5.972;2023-12-28T03:22:44;9.50;75.80
83142;DHT22;75194;51.180;5.972;2023-12-28T03:25:09;9.50;75.80
83142;DHT22;75194;51.180;5.972;2023-12-28T03:27:35;9.50;75.80
83142;DHT22;75194;51.180;5.972;2023-12-28T03:30:01;9.50;75.80
83142;DHT22;75194;51.180;5.972;2023-12-28T03:32:26;9.60;75.60
83142;DHT22;75194;51.180;5.972;2023-12-28T03:34:52;9.60;75.70
83142;DHT22;75194;51.180;5.972;2023-12-28T03:37:18;9.60;75.80
83142;DHT22;75194;51.180;5.972;2023-12-28T03:39:43;9.50;75.90
83142;DHT22;75194;51.180;5.972;2023-12-28T03:42:09;9.50;76.00
83142;DHT22;75194;51.180;5.972;2023-12-28T03:44:35;9.50;76.00
83142;DHT22;75194;51.180;5.972;2023-12-28T03:47:01;9.60;75.90
83142;DHT22;75194;51.180;5.972;2023-12-28T03:49:26;9.50;75.80
83142;DHT22;75194;51.180;5.972;2023-12-28T03:51:52;9.60;75.70
83142;DHT22;75194;51.180;5.972;2023-12-28T03:54:19;9.60;75.70
83142;DHT22;75194;51.180;5.972;2023-12-28T03:56:45;9.60;75.80
83142;DHT22;75194;51.180;5.972;2023-12-28T03:59:11;9.60;75.80
83142;DHT22;75194;51.180;5.972;2023-12-28T04:01:37;9.60;75.50
83142;DHT22;75194;51.180;5.972;2023-12-28T04:04:03;9.70;75.20
83142;DHT22;75194;51.180;5.972;2023-12-28T04:06:28;9.70;75.30
83142;DHT22;75194;51.180;5.972;2023-12-28T04:08:54;9.70;75.10
83142;DHT22;75194;51.180;5.972;2023-12-28T04:11:20;9.80;75.10
83142;DHT22;75194;51.180;5.972;2023-12-28T04:13:46;9.70;75.40
83142;DHT22;75194;51.180;5.972;2023-12-28T04:16:14;9.70;75.30
83142;DHT22;75194;51.180;5.972;2023-12-28T04:18:41;9.70;75.40
83142;DHT22;75194;51.180;5.972;2023-12-28T04:21:13;9.70;75.50
83142;DHT22;75194;51.180;5.972;2023-12-28T04:23:40;9.70;75.60
83142;DHT22;75194;51.180;5.972;2023-12-28T04:26:06;9.70;75.40
83142;DHT22;75194;51.180;5.972;2023-12-28T04:28:32;9.70;75.40
83142;DHT22;75194;51.180;5.972;2023-12-28T04:31:05;9.70;75.50
83142;DHT22;75194;51.180;5.972;2023-12-28T04:33:32;9.70;75.50
83142;DHT22;75194;51.180;5.972;2023-12-28T04:36:01;9.70;75.40
83142;DHT22;75194;51.180;5.972;2023-12-28T04:38:29;9.70;75.20
83142;DHT22;75194;51.180;5.972;2023-12-28T04:40:54;9.70;75.00
83142;DHT22;75194;51.180;5.972;2023-12-28T04:43:20;9.70;75.00
83142;DHT22;75194;51.180;5.972;2023-12-28T04:45:46;9.80;74.90
83142;DHT22;75194;51.180;5.972;2023-12-28T04:48:12;9.80;74.60
83142;DHT22;75194;51.180;5.972;2023-12-28T04:50:38;9.80;74.70
83142;DHT22;75194;51.180;5.972;2023-12-28T04:53:03;9.80;74.40
83142;DHT22;75194;51.180;5.972;2023-12-28T04:55:29;9.90;74.30
83142;DHT22;75194;51.180;5.972;2023-12-28T04:57:54;9.90;74.30
83142;DHT22;75194;51.180;5.972;2023-12-28T05:00:20;9.90;74.20
83142;DHT22;75194;51.180;5.972;2023-12-28T05:02:46;9.90;74.10
83142;DHT22;75194;51.180;5.972;2023-12-28T05:05:12;9.90;74.00
83142;DHT22;75194;51.180;5.972;2023-12-28T05:07:38;10.00;73.80
83142;DHT22;75194;51.180;5.972;2023-12-28T05:10:04;9.90;74.10
83142;DHT22;75194;51.180;5.972;2023-12-28T05:12:30;10.00;73.80
83142;DHT22;75194;51.180;5.972;2023-12-28T05:14:56;10.00;73.60
83142;DHT22;75194;51.180;5.972;2023-12-28T05:17:21;10.00;73.30
83142;DHT22;75194;51.180;5.972;2023-12-28T05:19:47;10.10;73.20
83142;DHT22;75194;51.180;5.972;2023-12-28T05:22:13;10.10;73.30
83142;DHT22;75194;51.180;5.972;2023-12-28T05:24:38;10.10;73.00
83142;DHT22;75194;51.180;5.972;2023-12-28T05:27:04;10.10;72.60
83142;DHT22;75194;51.180;5.972;2023-12-28T05:29:30;10.10;72.90
83142;DHT22;75194;51.180;5.972;2023-12-28T05:31:55;10.10;72.60
83142;DHT22;75194;51.180;5.972;2023-12-28T05:34:21;10.10;72.80
83142;DHT22;75194;51.180;5.972;2023-12-28T05:36:47;10.10;72.80
83142;DHT22;75194;51.180;5.972;2023-12-28T05:39:12;10.10;72.50
83142;DHT22;75194;51.180;5.972;2023-12-28T05:41:41;10.10;72.50
83142;DHT22;75194;51.180;5.972;2023-12-28T05:44:07;10.20;72.30
83142;DHT22;75194;51.180;5.972;2023-12-28T05:46:32;10.10;72.20
83142;DHT22;75194;51.180;5.972;2023-12-28T05:48:58;10.10;72.20
83142;DHT22;75194;51.180;5.972;2023-12-28T05:51:24;10.20;71.90
83142;DHT22;75194;51.180;5.972;2023-12-28T05:53:49;10.20;71.50
83142;DHT22;75194;51.180;5.972;2023-12-28T05:56:15;10.20;71.50
83142;DHT22;75194;51.180;5.972;2023-12-28T05:58:40;10.20;71.60
83142;DHT22;75194;51.180;5.972;2023-12-28T06:01:06;10.10;71.80
83142;DHT22;75194;51.180;5.972;2023-12-28T06:03:32;10.20;71.60
83142;DHT22;75194;51.180;5.972;2023-12-28T06:05:58;10.20;71.40
83142;DHT22;75194;51.180;5.972;2023-12-28T06:08:24;10.30;71.10
83142;DHT22;75194;51.180;5.972;2023-12-28T06:10:49;10.30;70.90
83142;DHT22;75194;51.180;5.972;2023-12-28T06:13:15;10.30;71.00
83142;DHT22;75194;51.180;5.972;2023-12-28T06:15:41;10.30;70.90
83142;DHT22;75194;51.180;5.972;2023-12-28T06:18:06;10.30;71.10
83142;DHT22;75194;51.180;5.972;2023-12-28T06:20:32;10.30;71.20
83142;DHT22;75194;51.180;5.972;2023-12-28T06:22:58;10.30;71.30
83142;DHT22;75194;51.180;5.972;2023-12-28T06:25:24;10.30;71.10
83142;DHT22;75194;51.180;5.972;2023-12-28T06:27:49;10.30;71.00
83142;DHT22;75194;51.180;5.972;2023-12-28T06:30:15;10.40;70.80
83142;DHT22;75194;51.180;5.972;2023-12-28T06:32:41;10.30;71.10
83142;DHT22;75194;51.180;5.972;2023-12-28T06:35:07;10.30;71.00
83142;DHT22;75194;51.180;5.972;2023-12-28T06:37:33;10.30;71.00
83142;DHT22;75194;51.180;5.972;2023-12-28T06:39:58;10.30;70.80
83142;DHT22;75194;51.180;5.972;2023-12-28T06:42:24;10.40;70.90
83142;DHT22;75194;51.180;5.972;2023-12-28T06:44:50;10.40;70.40
83142;DHT22;75194;51.180;5.972;2023-12-28T06:47:15;10.40;70.40
83142;DHT22;75194;51.180;5.972;2023-12-28T06:49:41;10.40;70.60
83142;DHT22;75194;51.180;5.972;2023-12-28T06:52:06;10.30;70.70
83142;DHT22;75194;51.180;5.972;2023-12-28T06:54:32;10.30;71.00
83142;DHT22;75194;51.180;5.972;2023-12-28T06:56:58;10.30;71.20
83142;DHT22;75194;51.180;5.972;2023-12-28T06:59:23;10.30;71.20
83142;DHT22;75194;51.180;5.972;2023-12-28T07:01:49;10.30;71.10
83142;DHT22;75194;51.180;5.972;2023-12-28T07:04:15;10.30;71.20
83142;DHT22;75194;51.180;5.972;2023-12-28T07:06:41;10.30;71.20
83142;DHT22;75194;51.180;5.972;2023-12-28T07:09:07;10.30;71.00
83142;DHT22;75194;51.180;5.972;2023-12-28T07:11:33;10.30;70.60
83142;DHT22;75194;51.180;5.972;2023-12-28T07:13:59;10.30;70.60
83142;DHT22;75194;51.180;5.972;2023-12-28T07:16:25;10.30;70.80
83142;DHT22;75194;51.180;5.972;2023-12-28T07:18:51;10.20;70.90
83142;DHT22;75194;51.180;5.972;2023-12-28T07:21:18;10.20;71.20
83142;DHT22;75194;51.180;5.972;2023-12-28T07:23:43;10.10;71.50
83142;DHT22;75194;51.180;5.972;2023-12-28T07:26:14;10.10;71.30
83142;DHT22;75194;51.180;5.972;2023-12-28T07:28:40;10.10;71.40
83142;DHT22;75194;51.180;5.972;2023-12-28T07:31:07;10.00;71.50
83142;DHT22;75194;51.180;5.972;2023-12-28T07:33:33;10.00;71.70
83142;DHT22;75194;51.180;5.972;2023-12-28T07:35:59;10.00;71.70
83142;DHT22;75194;51.180;5.972;2023-12-28T07:38:28;10.00;71.60
83142;DHT22;75194;51.180;5.972;2023-12-28T07:40:53;10.00;71.30
83142;DHT22;75194;51.180;5.972;2023-12-28T07:43:19;10.00;71.00
83142;DHT22;75194;51.180;5.972;2023-12-28T07:45:45;10.00;70.90
83142;DHT22;75194;51.180;5.972;2023-12-28T07:48:11;10.00;70.90
83142;DHT22;75194;51.180;5.972;2023-12-28T07:50:36;10.00;71.10
83142;DHT22;75194;51.180;5.972;2023-12-28T07:53:02;9.90;71.40
83142;DHT22;75194;51.180;5.972;2023-12-28T07:55:28;9.90;71.40
83142;DHT22;75194;51.180;5.972;2023-12-28T07:57:54;9.90;71.40
83142;DHT22;75194;51.180;5.972;2023-12-28T08:00:20;10.00;71.10
83142;DHT22;75194;51.180;5.972;2023-12-28T08:02:46;10.00;70.90
83142;DHT22;75194;51.180;5.972;2023-12-28T08:05:11;10.00;71.10
83142;DHT22;75194;51.180;5.972;2023-12-28T08:07:37;10.00;71.00
83142;DHT22;75194;51.180;5.972;2023-12-28T08:10:03;10.00;71.10
83142;DHT22;75194;51.180;5.972;2023-12-28T08:12:29;10.00;70.90
83142;DHT22;75194;51.180;5.972;2023-12-28T08:14:55;10.00;70.90
83142;DHT22;75194;51.180;5.972;2023-12-28T08:17:21;10.10;70.70
83142;DHT22;75194;51.180;5.972;2023-12-28T08:19:47;10.10;70.50
83142;DHT22;75194;51.180;5.972;2023-12-28T08:22:12;10.10;70.40
83142;DHT22;75194;51.180;5.972;2023-12-28T08:24:38;10.20;70.00
83142;DHT22;75194;51.180;5.972;2023-12-28T08:27:04;10.20;70.00
83142;DHT22;75194;51.180;5.972;2023-12-28T08:29:30;10.20;70.00
83142;DHT22;75194;51.180;5.972;2023-12-28T08:31:55;10.20;69.90
83142;DHT22;75194;51.180;5.972;2023-12-28T08:34:21;10.20;69.60
83142;DHT22;75194;51.180;5.972;2023-12-28T08:36:47;10.20;69.70
83142;DHT22;75194;51.180;5.972;2023-12-28T08:39:13;10.50;68.30
83142;DHT22;75194;51.180;5.972;2023-12-28T08:41:38;10.60;68.20
83142;DHT22;75194;51.180;5.972;2023-12-28T08:44:04;10.50;68.50
83142;DHT22;75194;51.180;5.972;2023-12-28T08:46:29;10.60;68.40
83142;DHT22;75194;51.180;5.972;2023-12-28T08:48:55;10.50;68.60
83142;DHT22;75194;51.180;5.972;2023-12-28T08:51:21;10.50;68.10
83142;DHT22;75194;51.180;5.972;2023-12-28T08:53:47;11.80;64.40
83142;DHT22;75194;51.180;5.972;2023-12-28T08:56:15;12.40;62.80
83142;DHT22;75194;51.180;5.972;2023-12-28T08:58:42;12.40;61.90
83142;DHT22;75194;51.180;5.972;2023-12-28T09:01:07;12.80;61.10
83142;DHT22;75194;51.180;5.972;2023-12-28T09:03:33;13.10;60.10
83142;DHT22;75194;51.180;5.972;2023-12-28T09:05:59;13.70;58.20
83142;DHT22;75194;51.180;5.972;2023-12-28T09:08:25;13.80;58.10
83142;DHT22;75194;51.180;5.972;2023-12-28T09:10:51;13.80;57.50
83142;DHT22;75194;51.180;5.972;2023-12-28T09:13:18;13.80;57.70
83142;DHT22;75194;51.180;5.972;2023-12-28T09:15:45;14.40;56.20
83142;DHT22;75194;51.180;5.972;2023-12-28T09:18:11;14.10;56.60
83142;DHT22;75194;51.180;5.972;2023-12-28T09:20:37;13.80;57.80
83142;DHT22;75194;51.180;5.972;2023-12-28T09:23:03;14.70;55.10
83142;DHT22;75194;51.180;5.972;2023-12-28T09:25:29;14.70;55.40
83142;DHT22;75194;51.180;5.972;2023-12-28T09:27:54;14.50;55.30
83142;DHT22;75194;51.180;5.972;2023-12-28T09:30:20;14.10;56.00
83142;DHT22;75194;51.180;5.972;2023-12-28T09:32:46;13.70;57.40
83142;DHT22;75194;51.180;5.972;2023-12-28T09:35:12;13.40;58.10
83142;DHT22;75194;51.180;5.972;2023-12-28T09:37:37;12.90;59.30
83142;DHT22;75194;51.180;5.972;2023-12-28T09:40:03;13.10;59.20
83142;DHT22;75194;51.180;5.972;2023-12-28T09:42:34;13.60;58.30
83142;DHT22;75194;51.180;5.972;2023-12-28T09:45:04;13.30;58.20
83142;DHT22;75194;51.180;5.972;2023-12-28T09:47:32;12.70;59.60
83142;DHT22;75194;51.180;5.972;2023-12-28T09:49:58;12.70;60.00
83142;DHT22;75194;51.180;5.972;2023-12-28T09:52:24;12.70;59.90
83142;DHT22;75194;51.180;5.972;2023-12-28T09:54:50;12.80;59.60
83142;DHT22;75194;51.180;5.972;2023-12-28T09:57:16;13.10;58.90
83142;DHT22;75194;51.180;5.972;2023-12-28T09:59:42;13.40;58.80
83142;DHT22;75194;51.180;5.972;2023-12-28T10:02:10;14.00;57.20
83142;DHT22;75194;51.180;5.972;2023-12-28T10:04:37;14.40;55.90
83142;DHT22;75194;51.180;5.972;2023-12-28T10:07:03;14.40;56.40
83142;DHT22;75194;51.180;5.972;2023-12-28T10:09:29;14.40;56.10
83142;DHT22;75194;51.180;5.972;2023-12-28T10:11:56;13.50;58.70
83142;DHT22;75194;51.180;5.972;2023-12-28T10:14:22;13.60;57.80
83142;DHT22;75194;51.180;5.972;2023-12-28T10:16:48;13.70;57.90
83142;DHT22;75194;51.180;5.972;2023-12-28T10:19:14;14.10;57.50
83142;DHT22;75194;51.180;5.972;2023-12-28T10:21:40;14.10;57.20
83142;DHT22;75194;51.180;5.972;2023-12-28T10:24:06;13.00;60.10
83142;DHT22;75194;51.180;5.972;2023-12-28T10:26:32;12.30;62.20
83142;DHT22;75194;51.180;5.972;2023-12-28T10:29:00;12.10;63.20
83142;DHT22;75194;51.180;5.972;2023-12-28T10:31:28;12.00;62.90
83142;DHT22;75194;51.180;5.972;2023-12-28T10:33:58;12.30;62.40
83142;DHT22;75194;51.180;5.972;2023-12-28T10:36:25;12.50;61.80
83142;DHT22;75194;51.180;5.972;2023-12-28T10:38:53;12.70;60.80
83142;DHT22;75194;51.180;5.972;2023-12-28T10:41:20;13.10;60.20
83142;DHT22;75194;51.180;5.972;2023-12-28T10:46:30;13.00;59.70
83142;DHT22;75194;51.180;5.972;2023-12-28T10:49:10;13.80;58.30
83142;DHT22;75194;51.180;5.972;2023-12-28T10:51:36;15.30;54.90
83142;DHT22;75194;51.180;5.972;2023-12-28T10:56:47;14.60;56.00
83142;DHT22;75194;51.180;5.972;2023-12-28T11:01:42;13.60;57.80
83142;DHT22;75194;51.180;5.972;2023-12-28T11:04:42;14.00;57.10
83142;DHT22;75194;51.180;5.972;2023-12-28T11:07:15;14.50;56.30
83142;DHT22;75194;51.180;5.972;2023-12-28T11:09:42;14.90;54.50
83142;DHT22;75194;51.180;5.972;2023-12-28T11:12:09;14.30;56.40
83142;DHT22;75194;51.180;5.972;2023-12-28T11:14:38;14.70;55.80
83142;DHT22;75194;51.180;5.972;2023-12-28T11:17:05;14.20;56.60
83142;DHT22;75194;51.180;5.972;2023-12-28T11:19:32;14.40;56.60
83142;DHT22;75194;51.180;5.972;2023-12-28T11:21:58;14.10;57.20
83142;DHT22;75194;51.180;5.972;2023-12-28T11:24:28;13.60;58.30
83142;DHT22;75194;51.180;5.972;2023-12-28T11:26:55;12.70;60.60
83142;DHT22;75194;51.180;5.972;2023-12-28T11:29:21;12.40;61.70
83142;DHT22;75194;51.180;5.972;2023-12-28T11:32:02;12.20;62.40
83142;DHT22;75194;51.180;5.972;2023-12-28T11:34:29;12.10;62.40
83142;DHT22;75194;51.180;5.972;2023-12-28T11:36:56;12.10;62.20
83142;DHT22;75194;51.180;5.972;2023-12-28T11:39:41;12.30;62.10
83142;DHT22;75194;51.180;5.972;2023-12-28T11:42:10;12.30;61.40
83142;DHT22;75194;51.180;5.972;2023-12-28T11:44:41;12.20;61.90
83142;DHT22;75194;51.180;5.972;2023-12-28T11:49:38;12.30;62.00
83142;DHT22;75194;51.180;5.972;2023-12-28T11:52:07;12.30;62.30
83142;DHT22;75194;51.180;5.972;2023-12-28T11:54:32;12.10;62.60
83142;DHT22;75194;51.180;5.972;2023-12-28T11:56:58;12.00;62.80
83142;DHT22;75194;51.180;5.972;2023-12-28T11:59:24;11.90;63.40
83142;DHT22;75194;51.180;5.972;2023-12-28T12:01:51;11.80;63.30
83142;DHT22;75194;51.180;5.972;2023-12-28T12:04:17;11.80;63.20
83142;DHT22;75194;51.180;5.972;2023-12-28T12:06:45;11.80;63.50
83142;DHT22;75194;51.180;5.972;2023-12-28T12:09:12;11.80;63.30
83142;DHT22;75194;51.180;5.972;2023-12-28T12:11:38;11.80;62.60
83142;DHT22;75194;51.180;5.972;2023-12-28T12:14:07;11.80;63.10
83142;DHT22;75194;51.180;5.972;2023-12-28T12:16:35;11.80;63.60
83142;DHT22;75194;51.180;5.972;2023-12-28T12:19:01;11.80;63.60
83142;DHT22;75194;51.180;5.972;2023-12-28T12:21:27;11.80;63.40
83142;DHT22;75194;51.180;5.972;2023-12-28T12:23:54;11.90;63.50
83142;DHT22;75194;51.180;5.972;2023-12-28T12:26:20;11.90;63.20
83142;DHT22;75194;51.180;5.972;2023-12-28T12:28:47;11.90;62.90
83142;DHT22;75194;51.180;5.972;2023-12-28T12:31:13;11.80;63.10
83142;DHT22;75194;51.180;5.972;2023-12-28T12:33:39;11.90;63.10
83142;DHT22;75194;51.180;5.972;2023-12-28T12:36:06;11.90;63.30
83142;DHT22;75194;51.180;5.972;2023-12-28T12:38:33;12.00;62.90
83142;DHT22;75194;51.180;5.972;2023-12-28T12:40:59;11.90;63.30
83142;DHT22;75194;51.180;5.972;2023-12-28T12:43:25;11.90;63.40
83142;DHT22;75194;51.180;5.972;2023-12-28T12:45:52;11.90;63.30
83142;DHT22;75194;51.180;5.972;2023-12-28T12:48:18;11.90;63.50
83142;DHT22;75194;51.180;5.972;2023-12-28T12:50:44;11.90;63.20
83142;DHT22;75194;51.180;5.972;2023-12-28T12:53:10;11.80;63.10
83142;DHT22;75194;51.180;5.972;2023-12-28T12:55:39;11.90;63.50
83142;DHT22;75194;51.180;5.972;2023-12-28T12:58:09;11.80;63.50
83142;DHT22;75194;51.180;5.972;2023-12-28T13:00:35;11.80;63.90
83142;DHT22;75194;51.180;5.972;2023-12-28T13:03:01;11.80;63.30
83142;DHT22;75194;51.180;5.972;2023-12-28T13:05:28;11.90;62.80
83142;DHT22;75194;51.180;5.972;2023-12-28T13:07:54;11.90;63.40
83142;DHT22;75194;51.180;5.972;2023-12-28T13:10:20;11.90;63.40
83142;DHT22;75194;51.180;5.972;2023-12-28T13:12:46;11.80;63.10
83142;DHT22;75194;51.180;5.972;2023-12-28T13:15:12;11.80;62.80
83142;DHT22;75194;51.180;5.972;2023-12-28T13:17:37;11.90;63.00
83142;DHT22;75194;51.180;5.972;2023-12-28T13:20:04;11.80;62.70
83142;DHT22;75194;51.180;5.972;2023-12-28T13:22:32;11.70;63.00
83142;DHT22;75194;51.180;5.972;2023-12-28T13:24:58;11.70;63.00
83142;DHT22;75194;51.180;5.972;2023-12-28T13:27:24;11.70;62.90
83142;DHT22;75194;51.180;5.972;2023-12-28T13:29:49;11.70;63.10
83142;DHT22;75194;51.180;5.972;2023-12-28T13:32:15;11.70;63.30
83142;DHT22;75194;51.180;5.972;2023-12-28T13:34:41;11.70;63.30
83142;DHT22;75194;51.180;5.972;2023-12-28T13:37:07;11.60;63.30
83142;DHT22;75194;51.180;5.972;2023-12-28T13:39:32;11.60;63.30
83142;DHT22;75194;51.180;5.972;2023-12-28T13:42:07;11.60;63.60
83142;DHT22;75194;51.180;5.972;2023-12-28T13:44:34;11.70;63.70
83142;DHT22;75194;51.180;5.972;2023-12-28T13:47:01;11.70;63.60
83142;DHT22;75194;51.180;5.972;2023-12-28T13:49:27;11.70;63.20
83142;DHT22;75194;51.180;5.972;2023-12-28T13:51:53;11.60;63.20
83142;DHT22;75194;51.180;5.972;2023-12-28T13:54:18;11.60;63.20
83142;DHT22;75194;51.180;5.972;2023-12-28T13:56:48;11.70;63.10
83142;DHT22;75194;51.180;5.972;2023-12-28T13:59:15;11.60;63.30
83142;DHT22;75194;51.180;5.972;2023-12-28T14:01:41;11.60;63.20
83142;DHT22;75194;51.180;5.972;2023-12-28T14:04:06;11.60;63.00
83142;DHT22;75194;51.180;5.972;2023-12-28T14:06:32;11.60;63.40
83142;DHT22;75194;51.180;5.972;2023-12-28T14:08:58;11.60;63.30
83142;DHT22;75194;51.180;5.972;2023-12-28T14:11:24;11.50;63.20
83142;DHT22;75194;51.180;5.972;2023-12-28T14:13:50;11.60;63.00
83142;DHT22;75194;51.180;5.972;2023-12-28T14:16:16;11.60;63.10
83142;DHT22;75194;51.180;5.972;2023-12-28T14:18:41;11.60;63.10
83142;DHT22;75194;51.180;5.972;2023-12-28T14:21:08;11.50;63.10
83142;DHT22;75194;51.180;5.972;2023-12-28T14:23:35;11.50;62.90
83142;DHT22;75194;51.180;5.972;2023-12-28T14:26:21;11.50;63.20
83142;DHT22;75194;51.180;5.972;2023-12-28T14:28:47;11.50;62.70
83142;DHT22;75194;51.180;5.972;2023-12-28T14:31:13;11.50;62.90
83142;DHT22;75194;51.180;5.972;2023-12-28T14:33:39;11.50;62.70
83142;DHT22;75194;51.180;5.972;2023-12-28T14:36:20;11.40;62.80
83142;DHT22;75194;51.180;5.972;2023-12-28T14:38:48;11.50;62.90
83142;DHT22;75194;51.180;5.972;2023-12-28T14:41:14;11.40;62.80
83142;DHT22;75194;51.180;5.972;2023-12-28T14:43:40;11.40;63.00
83142;DHT22;75194;51.180;5.972;2023-12-28T14:46:05;11.30;63.10
83142;DHT22;75194;51.180;5.972;2023-12-28T14:48:31;11.30;63.20
83142;DHT22;75194;51.180;5.972;2023-12-28T14:50:57;11.30;63.20
83142;DHT22;75194;51.180;5.972;2023-12-28T14:53:23;11.30;63.00
83142;DHT22;75194;51.180;5.972;2023-12-28T14:55:51;11.30;63.40
83142;DHT22;75194;51.180;5.972;2023-12-28T14:58:17;11.30;63.30
83142;DHT22;75194;51.180;5.972;2023-12-28T15:00:45;11.30;63.20
83142;DHT22;75194;51.180;5.972;2023-12-28T15:03:11;11.30;63.40
83142;DHT22;75194;51.180;5.972;2023-12-28T15:05:37;11.20;63.50
83142;DHT22;75194;51.180;5.972;2023-12-28T15:08:03;11.20;63.50
83142;DHT22;75194;51.180;5.972;2023-12-28T15:10:29;11.20;63.60
83142;DHT22;75194;51.180;5.972;2023-12-28T15:12:55;11.20;63.60
83142;DHT22;75194;51.180;5.972;2023-12-28T15:15:21;11.10;63.60
83142;DHT22;75194;51.180;5.972;2023-12-28T15:17:47;11.10;63.40
83142;DHT22;75194;51.180;5.972;2023-12-28T15:20:13;11.10;63.60
83142;DHT22;75194;51.180;5.972;2023-12-28T15:22:39;11.10;63.80
83142;DHT22;75194;51.180;5.972;2023-12-28T15:25:05;11.20;63.60
83142;DHT22;75194;51.180;5.972;2023-12-28T15:27:32;11.20;63.70
83142;DHT22;75194;51.180;5.972;2023-12-28T15:29:59;11.20;63.80
83142;DHT22;75194;51.180;5.972;2023-12-28T15:32:25;11.20;63.70
83142;DHT22;75194;51.180;5.972;2023-12-28T15:34:51;11.20;63.50
83142;DHT22;75194;51.180;5.972;2023-12-28T15:37:16;11.20;63.50
83142;DHT22;75194;51.180;5.972;2023-12-28T15:39:42;11.20;63.50
83142;DHT22;75194;51.180;5.972;2023-12-28T15:42:08;11.20;63.70